createdAt,value
2023-11-30T00:00:37.336Z,-0.47
2023-11-30T00:03:04.793Z,-0.45
2023-11-30T00:05:31.770Z,-0.46
2023-11-30T00:07:58.746Z,-0.46
2023-11-30T00:10:25.751Z,-0.45
2023-11-30T00:12:52.619Z,-0.45
2023-11-30T00:15:19.684Z,-0.46
2023-11-30T00:17:46.815Z,-0.48
2023-11-30T00:20:14.157Z,-0.46
2023-11-30T00:22:42.459Z,-0.45
2023-11-30T00:25:09.710Z,-0.42
2023-11-30T00:27:36.712Z,-0.42
2023-11-30T00:30:04.180Z,-0.42
2023-11-30T00:32:31.232Z,-0.41
2023-11-30T00:34:58.207Z,-0.39
2023-11-30T00:37:25.217Z,-0.42
2023-11-30T00:39:52.129Z,-0.42
2023-11-30T00:42:19.441Z,-0.43
2023-11-30T00:44:46.554Z,-0.43
2023-11-30T00:47:13.500Z,-0.44
2023-11-30T00:49:40.475Z,-0.45
2023-11-30T00:52:07.480Z,-0.45
2023-11-30T00:54:34.436Z,-0.45
2023-11-30T00:57:01.408Z,-0.45
2023-11-30T00:59:28.416Z,-0.46
2023-11-30T01:01:55.537Z,-0.46
2023-11-30T01:04:22.568Z,-0.49
2023-11-30T01:06:49.881Z,-0.51
2023-11-30T01:09:16.938Z,-0.50
2023-11-30T01:11:44.715Z,-0.49
2023-11-30T01:14:11.876Z,-0.46
2023-11-30T01:16:38.968Z,-0.46
2023-11-30T01:19:06.415Z,-0.46
2023-11-30T01:22:29.881Z,-0.48
2023-11-30T01:24:56.773Z,-0.47
2023-11-30T01:27:23.800Z,-0.51
2023-11-30T01:29:51.249Z,-0.51
2023-11-30T01:32:18.178Z,-0.57
2023-11-30T01:34:45.047Z,-0.59
2023-11-30T01:37:12.252Z,-0.61
2023-11-30T01:39:39.321Z,-0.62
2023-11-30T01:42:06.364Z,-0.60
2023-11-30T01:44:33.323Z,-0.62
2023-11-30T01:47:01.053Z,-0.60
2023-11-30T01:49:28.278Z,-0.57
2023-11-30T01:51:55.312Z,-0.58
2023-11-30T01:54:22.399Z,-0.57
2023-11-30T01:56:50.480Z,-0.52
2023-11-30T01:59:17.506Z,-0.52
2023-11-30T02:01:44.620Z,-0.51
2023-11-30T02:04:16.623Z,-0.49
2023-11-30T02:06:47.681Z,-0.48
2023-11-30T02:09:15.260Z,-0.47
2023-11-30T02:11:42.532Z,-0.49
2023-11-30T02:14:09.505Z,-0.46
2023-11-30T02:16:36.442Z,-0.47
2023-11-30T02:19:03.548Z,-0.45
2023-11-30T02:21:31.538Z,-0.45
2023-11-30T02:23:58.590Z,-0.44
2023-11-30T02:26:25.575Z,-0.42
2023-11-30T02:28:52.540Z,-0.43
2023-11-30T02:31:19.483Z,-0.44
2023-11-30T02:33:46.542Z,-0.45
2023-11-30T02:36:14.039Z,-0.44
2023-11-30T02:38:41.125Z,-0.45
2023-11-30T02:41:08.364Z,-0.42
2023-11-30T02:43:35.314Z,-0.41
2023-11-30T02:46:02.317Z,-0.37
2023-11-30T02:48:29.262Z,-0.37
2023-11-30T02:50:56.217Z,-0.36
2023-11-30T02:53:23.222Z,-0.36
2023-11-30T02:55:50.162Z,-0.35
2023-11-30T02:58:17.123Z,-0.35
2023-11-30T03:00:44.343Z,-0.33
2023-11-30T03:03:11.322Z,-0.33
2023-11-30T03:05:38.269Z,-0.34
2023-11-30T03:08:05.571Z,-0.36
2023-11-30T03:10:32.539Z,-0.37
2023-11-30T03:12:59.633Z,-0.35
2023-11-30T03:15:26.676Z,-0.36
2023-11-30T03:17:53.777Z,-0.37
2023-11-30T03:20:20.731Z,-0.37
2023-11-30T03:22:47.821Z,-0.36
2023-11-30T03:25:14.884Z,-0.36
2023-11-30T03:27:41.945Z,-0.35
2023-11-30T03:30:09.500Z,-0.37
2023-11-30T03:32:36.534Z,-0.36
2023-11-30T03:35:03.790Z,-0.36
2023-11-30T03:37:30.668Z,-0.36
2023-11-30T03:39:57.655Z,-0.34
2023-11-30T03:42:24.614Z,-0.33
2023-11-30T03:44:51.582Z,-0.31
2023-11-30T03:47:18.524Z,-0.34
2023-11-30T03:49:45.518Z,-0.32
2023-11-30T03:52:12.619Z,-0.35
2023-11-30T03:54:39.629Z,-0.35
2023-11-30T03:57:06.581Z,-0.34
2023-11-30T03:59:33.596Z,-0.33
2023-11-30T04:02:00.520Z,-0.34
2023-11-30T04:04:29.057Z,-0.33
2023-11-30T04:06:56.121Z,-0.33
2023-11-30T04:09:23.095Z,-0.33
2023-11-30T04:11:50.105Z,-0.32
2023-11-30T04:14:17.180Z,-0.30
2023-11-30T04:16:44.206Z,-0.31
2023-11-30T04:19:11.254Z,-0.32
2023-11-30T04:21:38.227Z,-0.29
2023-11-30T04:24:05.432Z,-0.30
2023-11-30T04:26:32.496Z,-0.31
2023-11-30T04:28:59.394Z,-0.29
2023-11-30T04:31:26.385Z,-0.30
2023-11-30T04:33:53.378Z,-0.28
2023-11-30T04:36:20.945Z,-0.28
2023-11-30T04:38:47.882Z,-0.27
2023-11-30T04:41:14.782Z,-0.26
2023-11-30T04:43:41.812Z,-0.26
2023-11-30T04:46:08.972Z,-0.25
2023-11-30T04:48:36.571Z,-0.23
2023-11-30T04:51:04.442Z,-0.23
2023-11-30T04:53:31.548Z,-0.23
2023-11-30T04:55:58.498Z,-0.24
2023-11-30T04:58:25.503Z,-0.24
2023-11-30T05:00:52.640Z,-0.26
2023-11-30T05:03:19.827Z,-0.25
2023-11-30T05:05:46.953Z,-0.23
2023-11-30T05:08:14.800Z,-0.24
2023-11-30T05:10:42.029Z,-0.22
2023-11-30T05:13:09.133Z,-0.19
2023-11-30T05:15:39.661Z,-0.19
2023-11-30T05:18:07.753Z,-0.18
2023-11-30T05:20:34.898Z,-0.18
2023-11-30T05:23:04.766Z,-0.19
2023-11-30T05:25:32.149Z,-0.18
2023-11-30T05:28:00.282Z,-0.16
2023-11-30T05:30:28.221Z,-0.13
2023-11-30T05:32:55.228Z,-0.11
2023-11-30T05:35:24.256Z,-0.13
2023-11-30T05:37:51.238Z,-0.12
2023-11-30T05:40:20.390Z,-0.11
2023-11-30T05:42:48.812Z,-0.10
2023-11-30T05:45:16.392Z,-0.08
2023-11-30T05:47:43.531Z,-0.08
2023-11-30T05:50:11.248Z,-0.06
2023-11-30T05:52:38.403Z,-0.04
2023-11-30T05:55:09.973Z,-0.03
2023-11-30T05:57:37.509Z,-0.03
2023-11-30T06:00:05.783Z,-0.04
2023-11-30T06:02:33.721Z,-0.05
2023-11-30T06:05:00.978Z,-0.05
2023-11-30T06:07:28.064Z,-0.07
2023-11-30T06:09:55.818Z,-0.05
2023-11-30T06:12:23.102Z,-0.04
2023-11-30T06:14:50.204Z,-0.05
2023-11-30T06:17:18.455Z,-0.06
2023-11-30T06:19:45.665Z,-0.09
2023-11-30T06:22:14.186Z,-0.08
2023-11-30T06:24:41.304Z,-0.05
2023-11-30T06:27:08.690Z,-0.05
2023-11-30T06:29:35.866Z,-0.03
2023-11-30T06:32:03.893Z,-0.01
2023-11-30T06:34:30.934Z,0.01
2023-11-30T06:36:58.039Z,-0.02
2023-11-30T06:39:26.046Z,-0.01
2023-11-30T06:41:53.867Z,-0.01
2023-11-30T06:44:21.630Z,-0.01
2023-11-30T06:46:48.790Z,0.01
2023-11-30T06:49:16.108Z,0.03
2023-11-30T06:51:43.129Z,0.02
2023-11-30T06:54:10.338Z,0.04
2023-11-30T06:56:37.453Z,0.05
2023-11-30T06:59:04.510Z,0.06
2023-11-30T07:01:32.006Z,0.06
2023-11-30T07:03:59.139Z,0.04
2023-11-30T07:06:26.416Z,0.04
2023-11-30T07:08:53.560Z,0.02
2023-11-30T07:11:20.660Z,0.05
2023-11-30T07:13:48.780Z,0.05
2023-11-30T07:16:15.973Z,0.02
2023-11-30T07:18:43.268Z,0.04
2023-11-30T07:21:15.218Z,0.04
2023-11-30T07:23:44.313Z,0.04
2023-11-30T07:26:15.221Z,0.03
2023-11-30T07:28:43.114Z,-0.01
2023-11-30T07:31:21.908Z,-0.01
2023-11-30T07:33:49.917Z,-0.02
2023-11-30T07:36:17.262Z,-0.01
2023-11-30T07:38:44.497Z,-0.04
2023-11-30T07:41:12.962Z,-0.06
2023-11-30T07:43:40.139Z,-0.09
2023-11-30T07:46:07.709Z,-0.08
2023-11-30T07:48:34.615Z,-0.09
2023-11-30T07:51:01.653Z,-0.13
2023-11-30T07:53:28.631Z,-0.16
2023-11-30T07:55:58.457Z,-0.17
2023-11-30T07:58:26.004Z,-0.16
2023-11-30T08:00:53.245Z,-0.19
2023-11-30T08:03:20.468Z,-0.20
2023-11-30T08:05:47.754Z,-0.21
2023-11-30T08:08:15.089Z,-0.21
2023-11-30T08:10:42.098Z,-0.21
2023-11-30T08:13:12.089Z,-0.23
2023-11-30T08:15:39.268Z,-0.21
2023-11-30T08:18:08.700Z,-0.19
2023-11-30T08:20:36.875Z,-0.19
2023-11-30T08:23:04.216Z,-0.17
2023-11-30T08:25:31.215Z,-0.17
2023-11-30T08:27:58.306Z,-0.16
2023-11-30T08:30:27.453Z,-0.15
2023-11-30T08:32:54.811Z,-0.17
2023-11-30T08:35:23.135Z,-0.17
2023-11-30T08:37:50.316Z,-0.17
2023-11-30T08:40:17.308Z,-0.18
2023-11-30T08:42:44.380Z,-0.18
2023-11-30T08:45:11.619Z,-0.20
2023-11-30T08:47:38.929Z,-0.22
2023-11-30T08:50:06.593Z,-0.24
2023-11-30T08:52:33.878Z,-0.26
2023-11-30T08:55:01.759Z,-0.22
2023-11-30T08:57:28.870Z,-0.17
2023-11-30T08:59:56.930Z,-0.08
2023-11-30T09:02:25.768Z,-0.05
2023-11-30T09:04:53.103Z,-0.01
2023-11-30T09:07:20.201Z,0.02
2023-11-30T09:09:50.476Z,0.04
2023-11-30T09:12:18.555Z,0.07
2023-11-30T09:14:45.598Z,0.10
2023-11-30T09:17:12.708Z,0.14
2023-11-30T09:19:39.762Z,0.13
2023-11-30T09:22:09.182Z,0.18
2023-11-30T09:24:36.432Z,0.18
2023-11-30T09:27:04.202Z,0.23
2023-11-30T09:29:32.736Z,0.25
2023-11-30T09:32:00.842Z,0.27
2023-11-30T09:34:28.656Z,0.29
2023-11-30T09:36:55.676Z,0.35
2023-11-30T09:39:22.784Z,0.39
2023-11-30T09:41:49.781Z,0.42
2023-11-30T09:44:16.884Z,0.47
2023-11-30T09:46:44.249Z,0.49
2023-11-30T09:49:11.403Z,0.50
2023-11-30T09:51:42.715Z,0.52
2023-11-30T09:54:11.120Z,0.53
2023-11-30T09:56:38.138Z,0.55
2023-11-30T09:59:05.126Z,0.61
2023-11-30T10:01:34.158Z,0.62
2023-11-30T10:04:16.860Z,0.65
2023-11-30T10:06:44.782Z,0.69
2023-11-30T10:09:14.321Z,0.74
2023-11-30T10:11:42.036Z,0.80
2023-11-30T10:14:09.387Z,0.87
2023-11-30T10:16:36.989Z,0.95
2023-11-30T10:19:08.677Z,1.00
2023-11-30T10:21:36.099Z,1.02
2023-11-30T10:24:03.566Z,0.99
2023-11-30T10:26:34.930Z,1.00
2023-11-30T10:29:07.880Z,1.06
2023-11-30T10:31:36.718Z,1.08
2023-11-30T10:34:12.990Z,1.13
2023-11-30T10:36:42.745Z,1.23
2023-11-30T10:39:24.079Z,1.32
2023-11-30T10:41:53.824Z,1.52
2023-11-30T10:44:32.289Z,1.65
2023-11-30T10:47:00.752Z,1.65
2023-11-30T10:49:29.820Z,1.58
2023-11-30T10:52:02.492Z,1.56
2023-11-30T10:54:40.186Z,1.66
2023-11-30T10:57:08.151Z,1.71
2023-11-30T10:59:35.524Z,1.71
2023-11-30T11:02:07.047Z,1.53
2023-11-30T11:04:34.390Z,1.39
2023-11-30T11:07:08.763Z,1.37
2023-11-30T11:09:51.524Z,1.27
2023-11-30T11:12:24.342Z,1.15
2023-11-30T11:14:52.369Z,1.10
2023-11-30T11:17:23.100Z,1.29
2023-11-30T11:19:50.156Z,1.37
2023-11-30T11:22:21.329Z,1.42
2023-11-30T11:24:49.657Z,1.48
2023-11-30T11:27:30.514Z,1.44
2023-11-30T11:30:06.532Z,1.39
2023-11-30T11:32:35.893Z,1.44
2023-11-30T11:35:09.040Z,1.51
2023-11-30T11:37:36.176Z,1.56
2023-11-30T11:40:04.800Z,1.58
2023-11-30T11:42:33.715Z,1.57
2023-11-30T11:45:04.126Z,1.51
2023-11-30T11:47:31.851Z,1.49
2023-11-30T11:49:59.172Z,1.55
2023-11-30T11:52:27.069Z,1.45
2023-11-30T11:55:11.625Z,1.27
2023-11-30T11:57:40.635Z,1.23
2023-11-30T12:00:15.228Z,1.17
2023-11-30T12:02:42.768Z,1.14
2023-11-30T12:05:15.179Z,1.06
2023-11-30T12:07:52.810Z,1.06
2023-11-30T12:10:39.192Z,1.17
2023-11-30T12:13:07.740Z,1.23
2023-11-30T12:15:35.268Z,1.23
2023-11-30T12:18:02.667Z,1.19
2023-11-30T12:20:30.461Z,1.10
2023-11-30T12:22:57.395Z,1.11
2023-11-30T12:25:27.636Z,1.13
2023-11-30T12:27:54.618Z,1.15
2023-11-30T12:30:22.052Z,1.14
2023-11-30T12:32:50.302Z,1.12
2023-11-30T12:35:17.575Z,1.12
2023-11-30T12:37:44.655Z,1.14
2023-11-30T12:40:14.629Z,1.16
2023-11-30T12:42:45.602Z,1.14
2023-11-30T12:45:14.161Z,1.13
2023-11-30T12:47:42.371Z,1.16
2023-11-30T12:50:12.137Z,1.21
2023-11-30T12:52:39.753Z,1.19
2023-11-30T12:55:07.572Z,1.17
2023-11-30T12:57:35.900Z,1.17
2023-11-30T13:00:10.582Z,1.11
2023-11-30T13:02:37.974Z,1.10
2023-11-30T13:05:05.523Z,1.17
2023-11-30T13:07:32.486Z,1.20
2023-11-30T13:09:59.479Z,1.18
2023-11-30T13:12:27.957Z,1.25
2023-11-30T13:14:57.616Z,1.27
2023-11-30T13:17:24.794Z,1.26
2023-11-30T13:19:51.828Z,1.17
2023-11-30T13:22:18.906Z,1.13
2023-11-30T13:24:46.009Z,1.10
2023-11-30T13:27:13.084Z,1.06
2023-11-30T13:29:40.013Z,1.04
2023-11-30T13:32:08.042Z,1.02
2023-11-30T13:34:36.573Z,1.04
2023-11-30T13:37:03.570Z,1.06
2023-11-30T13:39:30.574Z,1.06
2023-11-30T13:42:00.118Z,1.06
2023-11-30T13:44:27.739Z,0.99
2023-11-30T13:46:55.407Z,0.99
2023-11-30T13:49:22.712Z,0.90
2023-11-30T13:51:51.179Z,0.85
2023-11-30T13:54:18.375Z,0.85
2023-11-30T13:56:45.491Z,0.87
2023-11-30T13:59:12.699Z,0.89
2023-11-30T14:01:40.124Z,0.89
2023-11-30T14:04:09.658Z,0.85
2023-11-30T14:06:40.877Z,0.78
2023-11-30T14:09:15.127Z,0.69
2023-11-30T14:11:42.829Z,0.71
2023-11-30T14:14:10.174Z,0.74
2023-11-30T14:16:38.889Z,0.74
2023-11-30T14:19:06.038Z,0.68
2023-11-30T14:21:33.115Z,0.63
2023-11-30T14:24:00.273Z,0.60
2023-11-30T14:26:27.330Z,0.55
2023-11-30T14:28:54.296Z,0.54
2023-11-30T14:31:21.543Z,0.51
2023-11-30T14:33:48.866Z,0.45
2023-11-30T14:36:16.118Z,0.42
2023-11-30T14:38:43.080Z,0.42
2023-11-30T14:41:10.069Z,0.46
2023-11-30T14:43:37.053Z,0.43
2023-11-30T14:46:04.237Z,0.34
2023-11-30T14:48:31.225Z,0.29
2023-11-30T14:50:58.258Z,0.27
2023-11-30T14:53:25.167Z,0.34
2023-11-30T14:55:52.077Z,0.34
2023-11-30T14:58:21.168Z,0.33
2023-11-30T15:00:49.256Z,0.33
2023-11-30T15:03:17.044Z,0.36
2023-11-30T15:05:44.026Z,0.35
2023-11-30T15:08:11.626Z,0.32
2023-11-30T15:10:38.779Z,0.28
2023-11-30T15:13:05.795Z,0.30
2023-11-30T15:15:32.968Z,0.29
2023-11-30T15:18:00.164Z,0.26
2023-11-30T15:20:27.246Z,0.22
2023-11-30T15:22:54.454Z,0.21
2023-11-30T15:25:22.237Z,0.19
2023-11-30T15:27:50.427Z,0.17
2023-11-30T15:30:18.182Z,0.11
2023-11-30T15:32:45.688Z,0.10
2023-11-30T15:35:12.866Z,0.07
2023-11-30T15:37:39.914Z,0.08
2023-11-30T15:40:10.853Z,0.10
2023-11-30T15:42:39.837Z,0.07
2023-11-30T15:45:11.696Z,0.08
2023-11-30T15:47:40.593Z,0.08
2023-11-30T15:50:08.134Z,0.10
2023-11-30T15:52:35.184Z,0.04
2023-11-30T15:55:02.268Z,0.06
2023-11-30T15:57:29.415Z,0.08
2023-11-30T15:59:56.473Z,0.10
2023-11-30T16:02:23.662Z,0.07
2023-11-30T16:04:51.390Z,0.05
2023-11-30T16:07:18.469Z,0.04
2023-11-30T16:09:45.672Z,0.06
2023-11-30T16:12:12.649Z,0.09
2023-11-30T16:14:41.440Z,0.09
2023-11-30T16:17:09.485Z,0.10
2023-11-30T16:19:39.570Z,0.07
2023-11-30T16:22:06.672Z,0.08
2023-11-30T16:24:36.814Z,0.06
2023-11-30T16:27:04.556Z,-0.06
2023-11-30T16:29:31.550Z,-0.12
2023-11-30T16:31:58.703Z,-0.08
2023-11-30T16:34:31.966Z,-0.07
2023-11-30T16:36:59.984Z,-0.06
2023-11-30T16:39:28.719Z,-0.05
2023-11-30T16:41:57.397Z,-0.06
2023-11-30T16:44:24.500Z,-0.06
2023-11-30T16:46:51.538Z,-0.06
2023-11-30T16:49:18.592Z,-0.05
2023-11-30T16:51:49.350Z,-0.07
2023-11-30T16:54:22.223Z,-0.07
2023-11-30T16:56:49.270Z,-0.06
2023-11-30T16:59:17.694Z,-0.11
2023-11-30T17:01:44.991Z,-0.15
2023-11-30T17:04:12.117Z,-0.16
2023-11-30T17:06:39.839Z,-0.19
2023-11-30T17:09:06.917Z,-0.20
2023-11-30T17:11:33.861Z,-0.22
2023-11-30T17:14:01.046Z,-0.22
2023-11-30T17:16:28.032Z,-0.24
2023-11-30T17:18:55.098Z,-0.28
2023-11-30T17:21:22.779Z,-0.29
2023-11-30T17:23:49.761Z,-0.29
2023-11-30T17:26:16.858Z,-0.29
2023-11-30T17:28:44.779Z,-0.29
2023-11-30T17:31:11.838Z,-0.31
2023-11-30T17:33:39.058Z,-0.31
2023-11-30T17:36:06.463Z,-0.33
2023-11-30T17:38:33.438Z,-0.31
2023-11-30T17:41:00.413Z,-0.30
2023-11-30T17:43:27.548Z,-0.29
2023-11-30T17:45:54.720Z,-0.27
2023-11-30T17:48:21.742Z,-0.28
2023-11-30T17:50:48.690Z,-0.29
2023-11-30T17:53:15.807Z,-0.27
2023-11-30T17:55:42.801Z,-0.28
2023-11-30T17:58:09.953Z,-0.28
2023-11-30T18:00:38.799Z,-0.25
2023-11-30T18:03:05.722Z,-0.25
2023-11-30T18:05:32.678Z,-0.26
2023-11-30T18:08:00.700Z,-0.31
2023-11-30T18:10:27.969Z,-0.33
2023-11-30T18:12:55.005Z,-0.38
2023-11-30T18:15:22.095Z,-0.43
2023-11-30T18:17:49.049Z,-0.46
2023-11-30T18:20:16.298Z,-0.48
2023-11-30T18:22:43.403Z,-0.52
2023-11-30T18:25:10.681Z,-0.55
2023-11-30T18:27:37.689Z,-0.55
2023-11-30T18:30:05.307Z,-0.54
2023-11-30T18:32:33.372Z,-0.53
2023-11-30T18:35:00.314Z,-0.52
2023-11-30T18:37:27.280Z,-0.55
2023-11-30T18:39:54.377Z,-0.59
2023-11-30T18:42:22.468Z,-0.60
2023-11-30T18:44:49.394Z,-0.61
2023-11-30T18:47:16.324Z,-0.64
2023-11-30T18:49:43.449Z,-0.66
2023-11-30T18:52:10.522Z,-0.68
2023-11-30T18:54:37.641Z,-0.68
2023-11-30T18:57:04.871Z,-0.70
2023-11-30T18:59:32.373Z,-0.73
2023-11-30T19:01:59.587Z,-0.69
2023-11-30T19:04:26.694Z,-0.74
2023-11-30T19:06:53.841Z,-0.74
2023-11-30T19:09:20.872Z,-0.71
2023-11-30T19:11:50.539Z,-0.72
2023-11-30T19:14:17.459Z,-0.68
2023-11-30T19:16:45.930Z,-0.63
2023-11-30T19:19:13.010Z,-0.62
2023-11-30T19:21:44.129Z,-0.61
2023-11-30T19:24:13.589Z,-0.62
2023-11-30T19:26:41.555Z,-0.64
2023-11-30T19:29:11.411Z,-0.59
2023-11-30T19:31:38.573Z,-0.59
2023-11-30T19:34:05.712Z,-0.59
2023-11-30T19:36:32.723Z,-0.60
2023-11-30T19:38:59.798Z,-0.64
2023-11-30T19:41:26.675Z,-0.67
2023-11-30T19:43:55.020Z,-0.71
2023-11-30T19:46:22.076Z,-0.70
2023-11-30T19:48:49.006Z,-0.75
2023-11-30T19:51:19.653Z,-0.69
2023-11-30T19:53:46.655Z,-0.71
2023-11-30T19:56:15.761Z,-0.73
2023-11-30T19:58:44.250Z,-0.78
2023-11-30T20:01:14.417Z,-0.83
2023-11-30T20:03:41.461Z,-0.82
2023-11-30T20:06:14.660Z,-0.83
2023-11-30T20:08:42.237Z,-0.79
2023-11-30T20:11:14.524Z,-0.79
2023-11-30T20:13:42.669Z,-0.78
2023-11-30T20:16:12.131Z,-0.82
2023-11-30T20:18:39.319Z,-0.87
2023-11-30T20:21:07.272Z,-0.90
2023-11-30T20:23:34.290Z,-0.92
2023-11-30T20:26:01.524Z,-0.92
2023-11-30T20:28:28.616Z,-0.95
2023-11-30T20:30:55.738Z,-0.91
2023-11-30T20:33:23.023Z,-0.96
2023-11-30T20:35:50.123Z,-0.98
2023-11-30T20:38:17.162Z,-1.02
2023-11-30T20:40:44.663Z,-1.03
2023-11-30T20:43:11.720Z,-1.07
2023-11-30T20:45:38.836Z,-1.08
2023-11-30T20:48:06.991Z,-1.03
2023-11-30T20:50:33.966Z,-0.99
2023-11-30T20:53:01.492Z,-1.01
2023-11-30T20:55:29.731Z,-1.00
2023-11-30T20:57:56.892Z,-1.03
2023-11-30T21:00:24.056Z,-1.06
2023-11-30T21:02:51.289Z,-1.06
2023-11-30T21:05:19.557Z,-1.06
2023-11-30T21:07:46.691Z,-1.09
2023-11-30T21:10:15.411Z,-1.10
2023-11-30T21:12:43.104Z,-1.10
2023-11-30T21:15:10.676Z,-1.20
2023-11-30T21:17:37.625Z,-1.25
2023-11-30T21:20:05.224Z,-1.23
2023-11-30T21:22:33.065Z,-1.21
2023-11-30T21:25:00.012Z,-1.15
2023-11-30T21:27:27.124Z,-1.17
2023-11-30T21:29:55.455Z,-1.18
2023-11-30T21:32:22.539Z,-1.14
2023-11-30T21:34:50.085Z,-1.18
2023-11-30T21:37:17.148Z,-1.24
2023-11-30T21:39:44.687Z,-1.19
2023-11-30T21:42:11.751Z,-1.13
2023-11-30T21:44:40.356Z,-1.07
2023-11-30T21:47:13.581Z,-1.07
2023-11-30T21:49:47.702Z,-1.06
2023-11-30T21:52:14.856Z,-1.06
2023-11-30T21:54:42.360Z,-1.03
2023-11-30T21:57:09.700Z,-1.02
2023-11-30T21:59:39.250Z,-1.11
2023-11-30T22:02:06.852Z,-1.09
2023-11-30T22:04:34.221Z,-1.09
2023-11-30T22:07:01.486Z,-1.16
2023-11-30T22:09:28.990Z,-1.21
2023-11-30T22:11:55.969Z,-1.16
2023-11-30T22:14:23.422Z,-1.14
2023-11-30T22:16:50.543Z,-1.17
2023-11-30T22:19:18.055Z,-1.15
2023-11-30T22:21:45.397Z,-1.14
2023-11-30T22:24:12.695Z,-1.15
2023-11-30T22:26:41.939Z,-1.13
2023-11-30T22:29:08.966Z,-1.15
2023-11-30T22:31:36.473Z,-1.15
2023-11-30T22:34:03.647Z,-1.15
2023-11-30T22:36:31.058Z,-1.15
2023-11-30T22:38:58.629Z,-1.15
2023-11-30T22:41:25.769Z,-1.16
2023-11-30T22:43:52.911Z,-1.15
2023-11-30T22:46:20.425Z,-1.23
2023-11-30T22:48:49.919Z,-1.27
2023-11-30T22:51:17.590Z,-1.26
2023-11-30T22:53:44.702Z,-1.23
2023-11-30T22:56:20.474Z,-1.18
2023-11-30T22:58:48.226Z,-1.21
2023-11-30T23:01:17.006Z,-1.18
2023-11-30T23:03:45.343Z,-1.21
2023-11-30T23:06:16.044Z,-1.21
2023-11-30T23:08:43.847Z,-1.19
2023-11-30T23:11:11.251Z,-1.21
2023-11-30T23:13:38.676Z,-1.22
2023-11-30T23:16:06.324Z,-1.18
2023-11-30T23:18:33.768Z,-1.17
2023-11-30T23:21:00.865Z,-1.17
2023-11-30T23:23:27.863Z,-1.14
2023-11-30T23:25:54.809Z,-1.14
2023-11-30T23:28:21.717Z,-1.12
2023-11-30T23:30:49.121Z,-1.08
2023-11-30T23:33:16.333Z,-1.13
2023-11-30T23:35:43.472Z,-1.11
2023-11-30T23:38:10.707Z,-1.08
2023-11-30T23:40:37.611Z,-1.06
2023-11-30T23:43:04.719Z,-1.05
2023-11-30T23:45:31.861Z,-1.05
2023-11-30T23:47:58.906Z,-1.10
2023-11-30T23:50:26.084Z,-1.08
2023-11-30T23:52:53.107Z,-1.09
2023-11-30T23:55:19.976Z,-1.05
2023-11-30T23:57:47.008Z,-1.04
